Time;durP1;ratioP1;P1;durP2;ratioP2;P2;SDS_P1;SDS_P2;PMS_P1;PMS_P2;Temp;Humidity;BMP_temperature;BMP_pressure;BME280_temperature;BME280_humidity;BME280_pressure;Samples;Min_cycle;Max_cycle;Signal;HPM_P1;HPM_P2
2022/01/13 00:00:47;;;;;;;20.95;8.73;;;;;;;4.94;100.00;103912.66;4907817;29;19940;-76
2022/01/13 00:03:12;;;;;;;28.33;9.75;;;;;;;4.83;100.00;103903.31;4906925;29;20162;-76
2022/01/13 00:05:37;;;;;;;23.95;9.85;;;;;;;4.83;100.00;103903.31;4907033;29;20032;-76
2022/01/13 00:08:03;;;;;;;53.83;12.60;;;;;;;4.91;100.00;103910.09;4910859;29;20027;-76
2022/01/13 00:10:28;;;;;;;23.40;11.10;;;;;;;4.89;100.00;103911.88;4892564;29;20503;-76
2022/01/13 00:13:05;;;;;;;40.08;10.95;;;;;;;4.87;100.00;103918.91;4903266;29;20064;-76
2022/01/13 00:15:50;;;;;;;30.25;12.27;;;;;;;4.92;100.00;103918.78;4900265;29;20084;-76
2022/01/13 00:18:38;;;;;;;27.92;10.65;;;;;;;4.88;100.00;103901.47;4909468;29;20028;-76
2022/01/13 00:21:30;;;;;;;30.08;11.13;;;;;;;4.97;100.00;103914.31;4902755;29;20083;-76
2022/01/13 00:23:59;;;;;;;25.98;10.95;;;;;;;4.94;100.00;103911.75;4908744;29;20682;-75
2022/01/13 00:26:27;;;;;;;32.90;10.63;;;;;;;4.89;100.00;103908.41;4918275;29;20032;-76
2022/01/13 00:28:54;;;;;;;25.20;9.73;;;;;;;4.91;100.00;103920.56;4907067;29;20033;-76
2022/01/13 00:31:33;;;;;;;31.40;10.35;;;;;;;4.91;100.00;103917.94;4905060;29;20040;-75
2022/01/13 00:34:02;;;;;;;37.60;10.55;;;;;;;4.89;100.00;103924.97;4908004;29;20051;-75
2022/01/13 00:36:30;;;;;;;27.42;9.43;;;;;;;4.85;100.00;103930.31;4905803;29;20027;-75
2022/01/13 00:38:57;;;;;;;32.15;9.02;;;;;;;4.82;100.00;103915.56;4912299;29;20028;-76
2022/01/13 00:41:27;;;;;;;35.35;9.50;;;;;;;4.75;100.00;103898.28;4908944;29;20029;-76
2022/01/13 00:43:53;;;;;;;21.58;8.50;;;;;;;4.87;100.00;103913.66;4902276;29;20059;-76
2022/01/13 00:46:22;;;;;;;30.65;9.27;;;;;;;4.82;100.00;103920.78;4910955;29;20044;-76
2022/01/13 00:48:48;;;;;;;39.22;9.85;;;;;;;4.77;100.00;103906.06;4917287;29;20035;-76
2022/01/13 00:51:14;;;;;;;28.67;9.73;;;;;;;4.67;100.00;103887.13;4910122;29;20039;-75
2022/01/13 00:53:39;;;;;;;30.33;9.10;;;;;;;4.70;100.00;103900.13;4907461;29;20449;-75
2022/01/13 00:56:04;;;;;;;30.13;11.45;;;;;;;4.70;100.00;103887.06;4909736;29;20421;-75
2022/01/13 00:58:33;;;;;;;28.55;9.55;;;;;;;4.71;100.00;103891.41;4904099;29;20476;-75
2022/01/13 01:01:00;;;;;;;34.35;9.32;;;;;;;4.76;100.00;103905.22;4911064;29;20054;-76
2022/01/13 01:03:27;;;;;;;33.28;9.93;;;;;;;4.73;100.00;103895.69;4911457;29;20084;-76
2022/01/13 01:05:54;;;;;;;26.42;8.93;;;;;;;4.71;100.00;103892.25;4925241;29;20145;-76
2022/01/13 01:08:20;;;;;;;24.88;9.15;;;;;;;4.74;100.00;103901.78;4904281;29;20040;-76
2022/01/13 01:10:48;;;;;;;23.80;8.77;;;;;;;4.76;100.00;103907.84;4912807;29;20028;-75
2022/01/13 01:13:19;;;;;;;18.77;8.60;;;;;;;4.73;100.00;103906.16;4921747;29;20421;-75
2022/01/13 01:15:49;;;;;;;31.70;8.88;;;;;;;4.72;100.00;103903.56;4926957;29;20027;-76
2022/01/13 01:21:02;;;;;;;21.00;10.20;;;;;;;4.63;100.00;103896.81;4930423;29;20032;-76
2022/01/13 01:23:27;;;;;;;29.23;8.97;;;;;;;4.54;100.00;103881.34;4911076;29;20436;-76
2022/01/13 01:26:19;;;;;;;33.10;8.50;;;;;;;4.63;100.00;103894.19;4909589;29;20106;-76
2022/01/13 01:28:50;;;;;;;23.08;8.38;;;;;;;4.68;100.00;103901.94;4929023;29;20028;-75
2022/01/13 01:31:18;;;;;;;21.25;8.07;;;;;;;4.66;100.00;103898.47;4924781;29;20035;-76
2022/01/13 01:33:53;;;;;;;22.67;7.05;;;;;;;4.60;100.00;103898.66;4924645;29;20032;-76
2022/01/13 01:36:19;;;;;;;30.50;8.90;;;;;;;4.65;100.00;103902.00;4915833;29;20480;-76
2022/01/13 01:38:48;;;;;;;32.80;8.13;;;;;;;4.65;100.00;103907.25;4932997;29;20035;-76
2022/01/13 01:41:13;;;;;;;22.73;8.52;;;;;;;4.65;100.00;103897.63;4912850;29;20040;-76
2022/01/13 01:43:39;;;;;;;45.35;8.80;;;;;;;4.63;100.00;103895.97;4910738;29;20024;-76
2022/01/13 01:46:04;;;;;;;38.38;9.15;;;;;;;4.59;100.00;103902.16;4916157;29;20372;-75
2022/01/13 01:48:34;;;;;;;61.60;9.10;;;;;;;4.52;100.00;103881.38;4931772;29;20044;-76
2022/01/13 01:51:00;;;;;;;24.20;7.55;;;;;;;4.49;100.00;103891.91;4930110;29;20594;-76
2022/01/13 01:53:27;;;;;;;44.17;9.93;;;;;;;4.58;100.00;103895.22;4897609;29;20028;-76
2022/01/13 01:55:56;;;;;;;32.80;9.93;;;;;;;4.58;100.00;103889.97;4910046;29;20175;-76
2022/01/13 01:58:22;;;;;;;23.30;9.65;;;;;;;4.58;100.00;103896.06;4904522;29;20039;-76
2022/01/13 02:00:48;;;;;;;53.13;9.32;;;;;;;4.59;100.00;103894.31;4904010;29;20028;-79
2022/01/13 02:03:15;;;;;;;24.95;9.00;;;;;;;4.56;100.00;103887.41;4919514;29;20504;-79
2022/01/13 02:05:41;;;;;;;31.50;8.70;;;;;;;4.54;100.00;103883.94;4911396;29;20123;-79
2022/01/13 02:08:06;;;;;;;27.35;9.05;;;;;;;4.61;100.00;103895.13;4900283;29;20187;-79
2022/01/13 02:10:32;;;;;;;39.60;8.63;;;;;;;4.60;100.00;103888.19;4931363;29;20122;-79
2022/01/13 02:13:04;;;;;;;48.90;10.13;;;;;;;4.64;100.00;103884.56;4898958;29;20036;-79
2022/01/13 02:15:33;;;;;;;28.50;9.60;;;;;;;4.64;100.00;103884.56;4925412;29;20039;-79
2022/01/13 02:18:01;;;;;;;33.58;9.93;;;;;;;4.57;100.00;103865.56;4925138;29;20039;-79
2022/01/13 02:20:49;;;;;;;29.20;9.57;;;;;;;4.65;100.00;103868.00;4920388;29;20586;-79
2022/01/13 02:23:30;;;;;;;39.80;10.75;;;;;;;4.63;100.00;103861.94;4926205;29;20031;-79
2022/01/13 02:25:56;;;;;;;42.65;10.07;;;;;;;4.64;100.00;103868.88;4931098;29;20032;-79
2022/01/13 02:28:21;;;;;;;30.45;9.82;;;;;;;4.53;100.00;103845.63;4917603;29;20103;-79
2022/01/13 02:30:47;;;;;;;25.10;8.45;;;;;;;4.69;100.00;103869.66;4911405;29;20032;-79
2022/01/13 02:33:12;;;;;;;33.13;10.23;;;;;;;4.67;100.00;103868.81;4920065;29;20028;-79
2022/01/13 02:35:37;;;;;;;45.50;12.15;;;;;;;4.65;100.00;103863.63;4901611;29;20103;-79
2022/01/13 02:38:11;;;;;;;53.03;12.13;;;;;;;4.62;100.00;103849.78;4925914;29;20035;-79
2022/01/13 02:40:37;;;;;;;30.38;11.52;;;;;;;4.61;100.00;103861.13;4919952;29;20354;-79
2022/01/13 02:43:04;;;;;;;54.35;13.93;;;;;;;4.53;100.00;103851.72;4926688;29;20099;-79
2022/01/13 02:45:34;;;;;;;41.60;11.52;;;;;;;4.57;100.00;103849.84;4927466;29;20047;-79
2022/01/13 02:48:25;;;;;;;43.75;13.30;;;;;;;4.61;100.00;103863.75;4889235;29;20389;-79
2022/01/13 02:50:45;;;;;;;36.88;10.45;;;;;;;4.64;100.00;103866.25;4923943;29;20106;-79
2022/01/13 02:53:11;;;;;;;32.33;10.23;;;;;;;4.61;100.00;103863.75;4912379;29;20023;-79
2022/01/13 02:55:37;;;;;;;65.45;11.07;;;;;;;4.66;100.00;103867.09;4933882;29;20128;-79
2022/01/13 02:58:03;;;;;;;45.53;12.50;;;;;;;4.64;100.00;103868.88;4896343;29;20083;-79
2022/01/13 03:00:29;;;;;;;38.00;11.13;;;;;;;4.65;100.00;103861.00;4931532;29;20023;-79
2022/01/13 03:02:54;;;;;;;36.58;12.32;;;;;;;4.61;100.00;103861.97;4920180;29;20039;-79
2022/01/13 03:05:20;;;;;;;44.03;11.13;;;;;;;4.52;100.00;103849.13;4924123;29;20036;-79
2022/01/13 03:07:46;;;;;;;40.55;10.98;;;;;;;4.61;100.00;103851.50;4890912;29;20036;-79
2022/01/13 03:10:12;;;;;;;42.42;12.95;;;;;;;4.66;100.00;103861.84;4924340;29;20114;-79
2022/01/13 03:12:41;;;;;;;28.00;10.65;;;;;;;4.63;100.00;103854.94;4922494;29;20127;-79
2022/01/13 03:15:07;;;;;;;54.55;13.75;;;;;;;4.64;100.00;103858.41;4898555;29;20036;-79
2022/01/13 03:17:33;;;;;;;46.33;12.73;;;;;;;4.57;100.00;103846.41;4903317;29;20031;-79
2022/01/13 03:19:58;;;;;;;38.88;11.55;;;;;;;4.64;100.00;103855.81;4897797;29;20114;-79
2022/01/13 03:22:23;;;;;;;50.25;13.50;;;;;;;4.52;100.00;103828.19;4923198;29;20030;-79
2022/01/13 03:24:49;;;;;;;46.38;11.27;;;;;;;4.60;100.00;103835.88;4897977;29;20468;-79
2022/01/13 03:27:20;;;;;;;37.22;11.60;;;;;;;4.64;100.00;103847.94;4911420;29;20036;-79
2022/01/13 03:29:47;;;;;;;35.08;9.98;;;;;;;4.66;100.00;103846.16;4928885;29;20024;-79
2022/01/13 03:32:12;;;;;;;34.50;12.02;;;;;;;4.68;100.00;103850.47;4912974;29;20110;-79
2022/01/13 03:34:38;;;;;;;35.58;10.68;;;;;;;4.59;100.00;103828.91;4897999;29;20040;-79
2022/01/13 03:37:03;;;;;;;50.63;13.75;;;;;;;4.39;100.00;103809.31;4910623;29;20115;-79
2022/01/13 03:39:29;;;;;;;30.98;12.23;;;;;;;4.67;100.00;103845.28;4888490;29;20024;-79
2022/01/13 03:41:54;;;;;;;40.70;13.77;;;;;;;4.65;100.00;103841.84;4910698;29;20038;-79
2022/01/13 03:44:28;;;;;;;40.85;12.07;;;;;;;4.63;100.00;103833.16;4923003;29;20043;-79
2022/01/13 03:46:56;;;;;;;42.70;11.38;;;;;;;4.61;100.00;103837.56;4899316;29;20044;-79
2022/01/13 03:49:21;;;;;;;43.38;11.52;;;;;;;4.56;100.00;103827.22;4922238;29;20039;-79
2022/01/13 03:51:50;;;;;;;53.67;12.40;;;;;;;4.66;100.00;103828.72;4919118;29;20468;-79
2022/01/13 03:54:36;;;;;;;53.03;13.70;;;;;;;4.66;100.00;103827.84;4908220;29;20511;-79
2022/01/13 03:57:42;;;;;;;43.15;11.90;;;;;;;4.68;100.00;103832.16;4908679;29;20575;-79
2022/01/13 04:00:56;;;;;;;35.22;11.20;;;;;;;4.66;100.00;103835.69;4919528;29;20028;-79
2022/01/13 04:03:21;;;;;;;30.70;11.55;;;;;;;4.63;100.00;103828.78;4918157;29;20055;-79
2022/01/13 04:06:02;;;;;;;48.20;11.90;;;;;;;4.66;100.00;103833.97;4897586;29;20491;-80
2022/01/13 04:08:28;;;;;;;32.97;9.93;;;;;;;4.57;100.00;103820.25;4922997;29;20027;-79
2022/01/13 04:10:53;;;;;;;38.95;11.80;;;;;;;4.61;100.00;103821.88;4899359;29;20304;-79
2022/01/13 04:13:34;;;;;;;35.42;9.90;;;;;;;4.66;100.00;103830.47;4921844;29;20028;-80
2022/01/13 04:15:59;;;;;;;33.97;11.05;;;;;;;4.64;100.00;103827.03;4921742;29;20024;-79
2022/01/13 04:18:24;;;;;;;30.35;9.95;;;;;;;4.64;100.00;103827.91;4894891;29;20042;-79
2022/01/13 04:20:50;;;;;;;37.53;11.60;;;;;;;4.54;100.00;103814.19;4898846;29;20039;-79
2022/01/13 04:23:15;;;;;;;47.13;11.40;;;;;;;4.66;100.00;103826.13;4911650;29;20027;-79
2022/01/13 04:25:42;;;;;;;38.15;11.20;;;;;;;4.55;100.00;103817.66;4900071;29;20040;-80
2022/01/13 04:28:07;;;;;;;47.40;11.65;;;;;;;4.51;100.00;103821.25;4882439;29;20055;-79
2022/01/13 04:31:00;;;;;;;43.25;11.00;;;;;;;4.58;100.00;103827.19;4915154;29;20074;-79
2022/01/13 04:33:19;;;;;;;35.85;11.35;;;;;;;4.56;100.00;103821.16;4905444;29;20044;-79
2022/01/13 04:35:45;;;;;;;39.45;11.00;;;;;;;4.61;100.00;103827.13;4898314;29;20030;-79
2022/01/13 04:38:11;;;;;;;53.28;11.23;;;;;;;4.61;100.00;103832.34;4905123;29;20031;-79
2022/01/13 04:40:44;;;;;;;27.50;10.77;;;;;;;4.60;100.00;103830.63;4922578;29;20023;-79
2022/01/13 04:43:10;;;;;;;32.58;11.25;;;;;;;4.62;100.00;103834.09;4908649;29;20432;-79
2022/01/13 04:45:35;;;;;;;42.13;10.63;;;;;;;4.63;100.00;103823.56;4926987;29;20492;-79
2022/01/13 04:48:01;;;;;;;32.38;11.07;;;;;;;4.61;100.00;103829.72;4917165;29;20035;-79
2022/01/13 04:50:28;;;;;;;32.08;11.15;;;;;;;4.60;100.00;103830.63;4902153;29;20039;-79
2022/01/13 04:52:53;;;;;;;38.17;10.35;;;;;;;4.61;100.00;103835.81;4906549;29;20031;-79
2022/01/13 04:55:24;;;;;;;30.63;9.65;;;;;;;4.58;100.00;103819.34;4913340;29;20432;-79
2022/01/13 04:57:51;;;;;;;28.55;11.38;;;;;;;4.62;100.00;103828.84;4904793;29;20043;-79
2022/01/13 05:00:17;;;;;;;42.42;11.48;;;;;;;4.60;100.00;103830.63;4894263;29;20511;-79
2022/01/13 05:02:43;;;;;;;42.95;11.85;;;;;;;4.60;100.00;103838.50;4914965;29;20064;-79
2022/01/13 05:05:09;;;;;;;32.05;9.52;;;;;;;4.60;100.00;103841.97;4914998;29;20042;-79
2022/01/13 05:07:35;;;;;;;51.85;11.00;;;;;;;4.50;100.00;103809.91;4894307;29;20563;-79
2022/01/13 05:10:00;;;;;;;38.45;10.65;;;;;;;4.53;100.00;103820.31;4915020;29;20028;-79
2022/01/13 05:12:31;;;;;;;32.65;9.20;;;;;;;4.51;100.00;103811.66;4913207;29;20377;-79
2022/01/13 05:15:03;;;;;;;40.75;11.43;;;;;;;4.68;100.00;103829.56;4919116;29;20059;-79
2022/01/13 05:20:13;;;;;;;;;;;;;;;4.69;100.00;103831.25;4928697;29;20056;-79
2022/01/13 05:22:39;;;;;;;45.08;11.02;;;;;;;4.71;100.00;103828.63;4924963;29;20383;-79
2022/01/13 05:25:05;;;;;;;36.65;9.85;;;;;;;4.71;100.00;103829.47;4917612;29;20043;-79
2022/01/13 05:27:31;;;;;;;43.92;10.55;;;;;;;4.71;100.00;103823.38;4923807;29;20051;-79
2022/01/13 05:29:58;;;;;;;42.10;10.80;;;;;;;4.41;100.00;103775.31;4926043;29;20072;-79
2022/01/13 05:32:23;;;;;;;37.50;12.00;;;;;;;4.67;100.00;103821.75;4897109;29;20455;-79
2022/01/13 05:34:49;;;;;;;37.65;10.20;;;;;;;4.74;100.00;103828.53;4922767;29;20032;-79
2022/01/13 05:37:14;;;;;;;41.40;11.25;;;;;;;4.62;100.00;103814.00;4925113;29;20048;-79
2022/01/13 05:39:40;;;;;;;28.10;10.45;;;;;;;4.68;100.00;103812.97;4888907;29;20044;-79
2022/01/13 05:42:05;;;;;;;39.88;12.20;;;;;;;4.76;100.00;103824.13;4899255;29;20484;-79
2022/01/13 05:44:37;;;;;;;41.67;10.25;;;;;;;4.79;100.00;103820.56;4912321;29;20124;-79
2022/01/13 05:47:03;;;;;;;49.38;11.45;;;;;;;4.71;100.00;103803.31;4902445;29;20027;-79
2022/01/13 05:49:28;;;;;;;39.97;11.65;;;;;;;4.81;100.00;103817.00;4914703;29;20037;-80
2022/01/13 05:51:53;;;;;;;43.90;11.38;;;;;;;4.71;100.00;103792.84;4924442;29;20050;-79
2022/01/13 05:54:19;;;;;;;49.00;11.50;;;;;;;4.86;100.00;103806.44;4903699;29;20035;-79
2022/01/13 05:56:44;;;;;;;41.60;11.77;;;;;;;4.76;100.00;103797.09;4919316;29;20111;-80
2022/01/13 05:59:10;;;;;;;50.03;12.35;;;;;;;4.75;100.00;103798.84;4898902;29;20040;-80
2022/01/13 06:01:35;;;;;;;37.05;11.15;;;;;;;4.84;100.00;103809.09;4895964;29;20083;-80
2022/01/13 06:04:00;;;;;;;39.53;11.45;;;;;;;4.80;100.00;103802.19;4905591;29;20028;-80
2022/01/13 06:06:26;;;;;;;47.90;12.48;;;;;;;4.85;100.00;103809.94;4910137;29;20036;-80
2022/01/13 06:08:51;;;;;;;46.42;12.40;;;;;;;4.90;100.00;103810.66;4908491;29;20040;-80
2022/01/13 06:11:21;;;;;;;50.88;12.63;;;;;;;4.79;100.00;103792.66;4922056;29;20024;-80
2022/01/13 06:13:47;;;;;;;37.92;10.63;;;;;;;4.96;100.00;103813.13;4905683;29;20063;-80
2022/01/13 06:16:12;;;;;;;42.10;12.68;;;;;;;4.77;100.00;103786.59;4919955;29;20451;-80
2022/01/13 06:18:38;;;;;;;50.38;12.07;;;;;;;4.83;100.00;103796.03;4888570;29;20095;-80
2022/01/13 06:21:03;;;;;;;45.33;13.15;;;;;;;4.97;100.00;103811.38;4903451;29;20393;-81
2022/01/13 06:23:28;;;;;;;29.55;10.52;;;;;;;4.99;100.00;103812.19;4920197;29;20169;-80
2022/01/13 06:25:54;;;;;;;27.67;9.20;;;;;;;4.91;100.00;103794.94;4920899;29;20562;-80
2022/01/13 06:28:19;;;;;;;29.30;11.20;;;;;;;5.00;100.00;103811.28;4922649;29;20051;-80
2022/01/13 06:30:45;;;;;;;33.15;10.90;;;;;;;5.01;100.00;103799.91;4898573;29;20040;-80
2022/01/13 06:33:10;;;;;;;42.25;13.07;;;;;;;5.05;100.00;103798.94;4924315;29;20042;-80
2022/01/13 06:35:36;;;;;;;31.27;12.43;;;;;;;5.05;100.00;103804.16;4913435;29;20145;-81
2022/01/13 06:38:01;;;;;;;33.72;12.15;;;;;;;5.06;100.00;103801.50;4904556;29;20028;-80
2022/01/13 06:40:27;;;;;;;31.52;11.05;;;;;;;5.06;100.00;103803.28;4925603;29;20046;-80
2022/01/13 06:42:52;;;;;;;47.30;14.35;;;;;;;4.93;100.00;103782.66;4923695;29;20424;-80
2022/01/13 06:45:18;;;;;;;40.08;11.57;;;;;;;4.86;100.00;103764.56;4908584;29;20115;-80
2022/01/13 06:47:43;;;;;;;50.20;14.05;;;;;;;4.93;100.00;103772.19;4898778;29;20091;-80
2022/01/13 06:50:11;;;;;;;46.80;13.23;;;;;;;4.94;100.00;103768.69;4921599;29;20122;-80
2022/01/13 06:52:36;;;;;;;45.03;12.60;;;;;;;5.04;100.00;103778.91;4896626;29;20086;-81
2022/01/13 06:55:03;;;;;;;50.47;13.40;;;;;;;4.99;100.00;103775.53;4918051;29;20464;-80
2022/01/13 06:57:30;;;;;;;34.28;12.73;;;;;;;4.94;100.00;103765.19;4886532;29;20047;-80
2022/01/13 06:59:56;;;;;;;34.75;13.30;;;;;;;4.95;100.00;103759.91;4901990;29;20028;-82
2022/01/13 07:02:23;;;;;;;34.90;11.60;;;;;;;5.06;100.00;103777.97;4892882;29;20046;-81
2022/01/13 07:04:48;;;;;;;36.70;11.82;;;;;;;5.07;100.00;103774.41;4888002;29;20489;-79
2022/01/13 07:07:14;;;;;;;38.55;12.73;;;;;;;5.05;100.00;103770.13;4920060;29;20068;-80
2022/01/13 07:09:39;;;;;;;47.20;13.27;;;;;;;5.03;100.00;103764.97;4889894;29;20064;-80
2022/01/13 07:12:05;;;;;;;48.47;12.25;;;;;;;4.99;100.00;103765.06;4909203;29;20154;-80
2022/01/13 07:14:30;;;;;;;38.08;12.18;;;;;;;4.97;100.00;103766.91;4897310;29;20377;-79
2022/01/13 07:16:56;;;;;;;52.38;13.40;;;;;;;5.08;100.00;103781.38;4922569;29;20059;-80
2022/01/13 07:19:21;;;;;;;41.05;11.05;;;;;;;5.05;100.00;103770.13;4929292;29;20039;-81
2022/01/13 07:21:47;;;;;;;36.30;12.02;;;;;;;5.04;100.00;103778.91;4921883;29;20024;-80
2022/01/13 07:24:13;;;;;;;43.72;11.60;;;;;;;5.05;100.00;103778.00;4919888;29;20036;-80
2022/01/13 07:26:39;;;;;;;38.20;12.93;;;;;;;5.05;100.00;103785.84;4902019;29;20079;-80
2022/01/13 07:29:07;;;;;;;46.85;13.25;;;;;;;5.11;100.00;103806.63;4920605;29;20383;-81
2022/01/13 07:31:33;;;;;;;45.72;13.90;;;;;;;4.94;100.00;103792.25;4917062;29;20036;-81
2022/01/13 07:33:58;;;;;;;40.53;13.63;;;;;;;5.06;100.00;103821.59;4901512;29;20039;-81
2022/01/13 07:36:24;;;;;;;36.72;12.65;;;;;;;4.94;100.00;103813.19;4885435;29;20028;-81
2022/01/13 07:38:49;;;;;;;38.03;13.45;;;;;;;5.10;100.00;103825.88;4889424;29;20408;-81
2022/01/13 07:41:15;;;;;;;38.28;13.63;;;;;;;5.14;100.00;103828.34;4924012;29;20119;-81
2022/01/13 07:43:43;;;;;;;35.67;12.98;;;;;;;5.15;100.00;103826.59;4917634;29;20119;-81
2022/01/13 07:46:09;;;;;;;39.88;12.32;;;;;;;5.12;100.00;103811.81;4919162;29;20108;-81
2022/01/13 07:48:34;;;;;;;43.20;14.55;;;;;;;5.01;100.00;103798.16;4904190;29;20040;-84
2022/01/13 07:50:59;;;;;;;39.00;13.43;;;;;;;5.03;100.00;103799.00;4909215;29;20047;-85
2022/01/13 07:53:25;;;;;;;43.42;14.15;;;;;;;5.19;100.00;103827.38;4920419;29;20517;-85
2022/01/13 07:55:50;;;;;;;46.92;14.55;;;;;;;5.20;100.00;103818.59;4908811;29;20035;-80
2022/01/13 07:58:16;;;;;;;53.38;13.98;;;;;;;5.19;100.00;103815.13;4924862;29;20036;-81
2022/01/13 08:00:42;;;;;;;47.55;15.70;;;;;;;5.07;100.00;103795.38;4919043;29;20071;-81
2022/01/13 08:03:07;;;;;;;37.25;14.50;;;;;;;5.10;100.00;103802.31;4920552;29;20036;-80
2022/01/13 08:05:33;;;;;;;58.13;15.63;;;;;;;5.24;100.00;103812.38;4907766;29;20912;-80
2022/01/13 08:07:58;;;;;;;42.80;14.48;;;;;;;5.22;100.00;103815.03;4915525;29;20043;-81
2022/01/13 08:10:24;;;;;;;51.40;14.68;;;;;;;5.16;100.00;103796.88;4916503;29;20036;-82
2022/01/13 08:12:49;;;;;;;35.47;15.30;;;;;;;5.15;100.00;103787.31;4922891;29;20050;-81
2022/01/13 08:15:15;;;;;;;53.03;17.42;;;;;;;5.24;100.00;103805.38;4921837;29;20036;-81
2022/01/13 08:20:31;;;;;;;48.75;17.00;;;;;;;5.26;100.00;103798.34;4919124;29;20043;-81
2022/01/13 08:22:56;;;;;;;39.55;15.75;;;;;;;5.35;100.00;103816.41;4905338;29;20047;-80
2022/01/13 08:25:23;;;;;;;43.28;17.35;;;;;;;5.32;100.00;103811.28;4895458;29;20032;-81
2022/01/13 08:27:49;;;;;;;36.42;14.40;;;;;;;5.29;100.00;103811.38;4911073;29;20039;-81
2022/01/13 08:30:15;;;;;;;42.42;16.35;;;;;;;5.24;100.00;103796.66;4882667;29;20171;-81
2022/01/13 08:32:41;;;;;;;47.22;14.23;;;;;;;5.40;100.00;103821.53;4902839;29;20172;-81
2022/01/13 08:35:08;;;;;;;43.05;16.08;;;;;;;5.32;100.00;103800.78;4897661;29;20044;-81
2022/01/13 08:37:34;;;;;;;37.20;15.35;;;;;;;5.43;100.00;103820.59;4888081;29;20036;-80
2022/01/13 08:40:01;;;;;;;40.28;15.25;;;;;;;5.44;100.00;103825.78;4918720;29;20031;-80
2022/01/13 08:42:27;;;;;;;30.85;13.70;;;;;;;5.43;100.00;103831.06;4923549;29;20032;-81
2022/01/13 08:44:53;;;;;;;37.75;14.95;;;;;;;5.45;100.00;103831.88;4913452;29;20130;-80
2022/01/13 08:47:19;;;;;;;39.92;13.73;;;;;;;5.46;100.00;103837.06;4924974;29;20023;-80
2022/01/13 08:49:45;;;;;;;33.83;14.23;;;;;;;5.47;100.00;103837.94;4894839;29;20028;-80
2022/01/13 08:52:11;;;;;;;30.42;13.50;;;;;;;5.47;100.00;103837.94;4927002;29;20028;-81
2022/01/13 08:54:36;;;;;;;41.75;14.30;;;;;;;5.47;100.00;103824.84;4921347;29;20032;-80
2022/01/13 08:57:02;;;;;;;48.47;14.98;;;;;;;5.43;100.00;103813.59;4899212;29;20223;-80
2022/01/13 08:59:28;;;;;;;32.65;12.43;;;;;;;5.53;100.00;103835.13;4904026;29;20036;-81
2022/01/13 09:01:54;;;;;;;43.58;14.77;;;;;;;5.56;100.00;103829.81;4914388;29;20031;-81
2022/01/13 09:04:20;;;;;;;38.80;13.15;;;;;;;5.57;100.00;103834.13;4898248;29;20092;-80
2022/01/13 09:06:46;;;;;;;30.48;13.98;;;;;;;5.58;100.00;103833.25;4914539;29;20020;-80
2022/01/13 09:09:14;;;;;;;33.60;13.38;;;;;;;5.53;100.00;103815.06;4920210;29;20176;-80
2022/01/13 09:11:40;;;;;;;37.78;13.90;;;;;;;5.59;100.00;103831.47;4908132;29;20072;-79
2022/01/13 09:14:05;;;;;;;32.92;12.50;;;;;;;5.61;100.00;103830.53;4918072;29;20040;-79
2022/01/13 09:16:41;;;;;;;58.30;23.33;;;;;;;5.54;100.00;103816.75;4920141;29;20025;-78
2022/01/13 09:19:11;;;;;;;35.10;13.80;;;;;;;5.59;100.00;103810.53;4920827;29;20100;-78
2022/01/13 09:21:38;;;;;;;35.10;15.38;;;;;;;5.63;100.00;103806.91;4902698;29;20032;-79
2022/01/13 09:24:06;;;;;;;40.58;14.68;;;;;;;5.68;100.00;103819.00;4905671;29;20020;-78
2022/01/13 09:26:32;;;;;;;40.45;15.60;;;;;;;5.67;100.00;103821.66;4916995;29;20026;-78
2022/01/13 09:28:57;;;;;;;46.20;17.80;;;;;;;5.58;100.00;103796.56;4915269;29;20040;-79
2022/01/13 09:31:22;;;;;;;33.83;13.98;;;;;;;5.68;100.00;103824.22;4918481;29;20039;-78
2022/01/13 09:33:48;;;;;;;82.10;29.48;;;;;;;5.60;100.00;103800.00;4925422;29;20032;-78
2022/01/13 09:36:15;;;;;;;59.05;19.52;;;;;;;5.67;100.00;103800.69;4907243;29;20042;-78
2022/01/13 09:38:40;;;;;;;47.47;16.00;;;;;;;5.83;100.00;103816.81;4923214;29;20488;-78
2022/01/13 09:41:06;;;;;;;60.97;22.98;;;;;;;5.84;100.00;103824.63;4910162;29;20032;-78
2022/01/13 09:43:31;;;;;;;38.42;15.05;;;;;;;5.86;100.00;103827.22;4921101;29;20043;-78
2022/01/13 09:45:59;;;;;;;43.67;19.90;;;;;;;5.82;100.00;103826.44;4918552;29;20055;-78
2022/01/13 09:48:26;;;;;;;47.13;17.80;;;;;;;5.88;100.00;103833.25;4916248;29;20035;-78
2022/01/13 09:50:52;;;;;;;43.53;15.32;;;;;;;5.91;100.00;103825.31;4920555;29;20425;-78
2022/01/13 09:53:18;;;;;;;35.42;14.32;;;;;;;6.02;100.00;103823.25;4926701;29;20047;-78
2022/01/13 09:55:45;;;;;;;32.22;13.07;;;;;;;6.05;100.00;103833.63;4925287;29;20032;-78
2022/01/13 09:58:11;;;;;;;29.92;12.68;;;;;;;6.08;100.00;103845.81;4923213;29;20082;-78
2022/01/13 10:00:42;;;;;;;30.60;13.00;;;;;;;6.07;100.00;103839.66;4924727;29;20476;-80
2022/01/13 10:03:16;;;;;;;33.05;13.93;;;;;;;6.09;100.00;103840.50;4926844;29;20130;-80
2022/01/13 10:05:51;;;;;;;25.33;12.70;;;;;;;6.12;100.00;103837.78;4905000;29;20035;-80
2022/01/13 10:08:16;;;;;;;27.88;13.80;;;;;;;6.15;100.00;103837.69;4917933;29;20040;-80
2022/01/13 10:10:42;;;;;;;32.67;13.25;;;;;;;6.07;100.00;103820.47;4919055;29;20043;-80
2022/01/13 10:13:11;;;;;;;35.60;16.10;;;;;;;6.11;100.00;103822.09;4927165;29;20032;-79
2022/01/13 10:18:48;;;;;;;27.42;13.13;;;;;;;6.13;100.00;103830.78;4925409;29;20043;-80
2022/01/13 10:21:19;;;;;;;30.10;15.07;;;;;;;6.07;100.00;103829.19;4908744;29;20047;-81
2022/01/13 10:24:09;;;;;;;27.90;14.85;;;;;;;6.10;100.00;103826.47;4906209;29;20036;-81
2022/01/13 10:26:35;;;;;;;23.98;11.55;;;;;;;6.06;100.00;103826.63;4920854;29;20074;-80
2022/01/13 10:29:03;;;;;;;27.48;11.75;;;;;;;6.00;100.00;103809.31;4924138;29;20035;-80
2022/01/13 10:31:51;;;;;;;29.85;14.45;;;;;;;6.07;100.00;103823.09;4914671;29;20063;-80
2022/01/13 10:34:28;;;;;;;21.30;11.80;;;;;;;5.94;100.00;103797.28;4925485;29;20188;-79
2022/01/13 10:37:03;;;;;;;31.38;12.18;;;;;;;6.15;100.00;103814.06;4920993;29;20024;-80
2022/01/13 10:39:59;;;;;;;30.23;14.35;;;;;;;6.17;100.00;103817.50;4922424;29;20069;-79
2022/01/13 10:45:20;;;;;;;38.50;18.33;;;;;;;6.19;100.00;103814.84;4927921;29;20060;-79
2022/01/13 10:48:13;;;;;;;25.05;12.70;;;;;;;6.19;100.00;103809.59;4908415;29;20042;-80
2022/01/13 10:50:42;;;;;;;32.17;14.00;;;;;;;6.19;100.00;103801.75;4906788;29;20045;-80
2022/01/13 10:53:12;;;;;;;29.58;15.82;;;;;;;6.20;100.00;103794.72;4915196;29;20112;-80
2022/01/13 10:55:42;;;;;;;30.20;14.00;;;;;;;6.25;100.00;103809.41;4927364;29;20023;-80
2022/01/13 10:58:07;;;;;;;29.48;13.68;;;;;;;6.29;100.00;103805.78;4922616;29;20031;-80
2022/01/13 11:00:34;;;;;;;26.73;13.88;;;;;;;6.20;100.00;103794.72;4906764;29;20027;-80
2022/01/13 11:03:04;;;;;;;32.17;15.00;;;;;;;6.26;100.00;103805.03;4887541;29;20040;-80
2022/01/13 11:05:32;;;;;;;29.88;14.85;;;;;;;6.28;100.00;103809.31;4917786;29;20028;-80
2022/01/13 11:07:58;;;;;;;32.63;13.45;;;;;;;6.18;100.00;103779.03;4907448;29;20154;-80
2022/01/13 11:10:24;;;;;;;37.88;15.60;;;;;;;6.20;100.00;103790.31;4915242;29;20167;-80
2022/01/13 11:12:56;;;;;;;32.65;13.63;;;;;;;6.26;100.00;103802.41;4927149;29;20032;-80
2022/01/13 11:15:24;;;;;;;36.10;15.00;;;;;;;6.21;100.00;103780.72;4919525;29;20036;-80
2022/01/13 11:17:55;;;;;;;34.90;14.57;;;;;;;6.31;100.00;103798.69;4909007;29;20481;-80
2022/01/13 11:20:22;;;;;;;33.83;14.70;;;;;;;6.09;100.00;103766.22;4919522;29;20034;-80
2022/01/13 11:22:50;;;;;;;28.27;15.10;;;;;;;6.15;100.00;103776.50;4881648;29;20086;-80
2022/01/13 11:25:18;;;;;;;30.98;14.90;;;;;;;6.35;100.00;103802.09;4925517;29;20028;-81
2022/01/13 11:27:45;;;;;;;38.90;15.95;;;;;;;6.21;100.00;103797.31;4922260;29;20051;-80
2022/01/13 11:30:13;;;;;;;27.38;15.50;;;;;;;6.17;100.00;103780.78;4902651;29;20028;-81